sensor_id;sensor_type;location;lat;lon;timestamp;temperature;humidity
18426;DHT22;9340;48.756;9.226;2022-08-30T00:02:16;16.50;99.90
18426;DHT22;9340;48.756;9.226;2022-08-30T00:04:42;16.50;99.90
18426;DHT22;9340;48.756;9.226;2022-08-30T00:07:09;16.50;99.90
18426;DHT22;9340;48.756;9.226;2022-08-30T00:09:36;16.50;99.90
18426;DHT22;9340;48.756;9.226;2022-08-30T00:12:03;16.50;99.90
18426;DHT22;9340;48.756;9.226;2022-08-30T00:14:30;16.50;99.90
18426;DHT22;9340;48.756;9.226;2022-08-30T00:16:56;16.40;99.90
18426;DHT22;9340;48.756;9.226;2022-08-30T00:19:24;16.40;99.90
18426;DHT22;9340;48.756;9.226;2022-08-30T00:21:51;16.40;99.90
18426;DHT22;9340;48.756;9.226;2022-08-30T00:24:17;16.30;99.90
18426;DHT22;9340;48.756;9.226;2022-08-30T00:26:44;16.30;99.90
18426;DHT22;9340;48.756;9.226;2022-08-30T00:29:11;16.30;99.90
18426;DHT22;9340;48.756;9.226;2022-08-30T00:31:38;16.30;99.90
18426;DHT22;9340;48.756;9.226;2022-08-30T00:34:05;16.20;99.90
18426;DHT22;9340;48.756;9.226;2022-08-30T00:36:33;16.20;99.90
18426;DHT22;9340;48.756;9.226;2022-08-30T00:38:59;16.20;99.90
18426;DHT22;9340;48.756;9.226;2022-08-30T00:41:26;16.10;99.90
18426;DHT22;9340;48.756;9.226;2022-08-30T00:43:53;16.10;99.90
18426;DHT22;9340;48.756;9.226;2022-08-30T00:46:19;16.20;99.90
18426;DHT22;9340;48.756;9.226;2022-08-30T00:48:47;16.10;99.90
18426;DHT22;9340;48.756;9.226;2022-08-30T00:51:15;16.10;99.90
18426;DHT22;9340;48.756;9.226;2022-08-30T00:53:46;16.00;99.90
18426;DHT22;9340;48.756;9.226;2022-08-30T00:56:14;16.00;99.90
18426;DHT22;9340;48.756;9.226;2022-08-30T00:58:43;16.00;99.90
18426;DHT22;9340;48.756;9.226;2022-08-30T01:01:10;16.00;99.90
18426;DHT22;9340;48.756;9.226;2022-08-30T01:03:38;16.00;99.90
18426;DHT22;9340;48.756;9.226;2022-08-30T01:06:05;15.90;99.90
18426;DHT22;9340;48.756;9.226;2022-08-30T01:08:32;15.90;99.90
18426;DHT22;9340;48.756;9.226;2022-08-30T01:11:02;15.90;99.90
18426;DHT22;9340;48.756;9.226;2022-08-30T01:13:29;15.90;99.90
18426;DHT22;9340;48.756;9.226;2022-08-30T01:15:57;15.80;99.90
18426;DHT22;9340;48.756;9.226;2022-08-30T01:18:25;15.80;99.90
18426;DHT22;9340;48.756;9.226;2022-08-30T01:20:58;15.90;99.90
18426;DHT22;9340;48.756;9.226;2022-08-30T01:23:31;15.80;99.90
18426;DHT22;9340;48.756;9.226;2022-08-30T01:25:59;15.80;99.90
18426;DHT22;9340;48.756;9.226;2022-08-30T01:28:29;15.80;99.90
18426;DHT22;9340;48.756;9.226;2022-08-30T01:30:56;15.70;99.90
18426;DHT22;9340;48.756;9.226;2022-08-30T01:33:23;15.70;99.90
18426;DHT22;9340;48.756;9.226;2022-08-30T01:35:58;15.70;99.90
18426;DHT22;9340;48.756;9.226;2022-08-30T01:38:29;15.70;99.90
18426;DHT22;9340;48.756;9.226;2022-08-30T01:40:57;15.70;99.90
18426;DHT22;9340;48.756;9.226;2022-08-30T01:43:24;15.80;99.90
18426;DHT22;9340;48.756;9.226;2022-08-30T01:45:51;15.60;99.90
18426;DHT22;9340;48.756;9.226;2022-08-30T01:48:18;15.60;99.90
18426;DHT22;9340;48.756;9.226;2022-08-30T01:50:46;15.60;99.90
18426;DHT22;9340;48.756;9.226;2022-08-30T01:53:13;15.50;99.90
18426;DHT22;9340;48.756;9.226;2022-08-30T01:55:42;15.50;99.90
18426;DHT22;9340;48.756;9.226;2022-08-30T01:58:09;15.50;99.90
18426;DHT22;9340;48.756;9.226;2022-08-30T02:00:36;15.50;99.90
18426;DHT22;9340;48.756;9.226;2022-08-30T02:03:03;15.50;99.90
18426;DHT22;9340;48.756;9.226;2022-08-30T02:05:30;15.40;99.90
18426;DHT22;9340;48.756;9.226;2022-08-30T02:07:57;15.40;99.90
18426;DHT22;9340;48.756;9.226;2022-08-30T02:10:24;15.40;99.90
18426;DHT22;9340;48.756;9.226;2022-08-30T02:12:52;15.40;99.90
18426;DHT22;9340;48.756;9.226;2022-08-30T02:15:19;15.40;99.90
18426;DHT22;9340;48.756;9.226;2022-08-30T02:17:45;15.40;99.90
18426;DHT22;9340;48.756;9.226;2022-08-30T02:20:12;15.40;99.90
18426;DHT22;9340;48.756;9.226;2022-08-30T02:22:39;15.30;99.90
18426;DHT22;9340;48.756;9.226;2022-08-30T02:25:06;15.10;99.90
18426;DHT22;9340;48.756;9.226;2022-08-30T02:27:33;15.10;99.90
18426;DHT22;9340;48.756;9.226;2022-08-30T02:30:04;15.10;99.90
18426;DHT22;9340;48.756;9.226;2022-08-30T02:32:31;15.10;99.90
18426;DHT22;9340;48.756;9.226;2022-08-30T02:34:57;15.00;99.90
18426;DHT22;9340;48.756;9.226;2022-08-30T02:37:24;15.00;99.90
18426;DHT22;9340;48.756;9.226;2022-08-30T02:39:51;15.10;99.90
18426;DHT22;9340;48.756;9.226;2022-08-30T02:42:17;15.00;99.90
18426;DHT22;9340;48.756;9.226;2022-08-30T02:44:44;15.00;99.90
18426;DHT22;9340;48.756;9.226;2022-08-30T02:47:12;15.00;99.90
18426;DHT22;9340;48.756;9.226;2022-08-30T02:49:39;15.10;99.90
18426;DHT22;9340;48.756;9.226;2022-08-30T02:52:06;15.10;99.90
18426;DHT22;9340;48.756;9.226;2022-08-30T02:54:32;15.00;99.90
18426;DHT22;9340;48.756;9.226;2022-08-30T02:57:00;15.00;99.90
18426;DHT22;9340;48.756;9.226;2022-08-30T02:59:29;15.00;99.90
18426;DHT22;9340;48.756;9.226;2022-08-30T03:01:55;14.90;99.90
18426;DHT22;9340;48.756;9.226;2022-08-30T03:04:23;14.90;99.90
18426;DHT22;9340;48.756;9.226;2022-08-30T03:06:50;15.00;99.90
18426;DHT22;9340;48.756;9.226;2022-08-30T03:09:17;15.00;99.90
18426;DHT22;9340;48.756;9.226;2022-08-30T03:11:44;15.00;99.90
18426;DHT22;9340;48.756;9.226;2022-08-30T03:14:10;14.90;99.90
18426;DHT22;9340;48.756;9.226;2022-08-30T03:16:37;14.90;99.90
18426;DHT22;9340;48.756;9.226;2022-08-30T03:19:04;14.90;99.90
18426;DHT22;9340;48.756;9.226;2022-08-30T03:21:32;14.90;99.90
18426;DHT22;9340;48.756;9.226;2022-08-30T03:23:58;14.90;99.90
18426;DHT22;9340;48.756;9.226;2022-08-30T03:26:25;14.90;99.90
18426;DHT22;9340;48.756;9.226;2022-08-30T03:28:52;14.80;99.90
18426;DHT22;9340;48.756;9.226;2022-08-30T03:31:19;14.80;99.90
18426;DHT22;9340;48.756;9.226;2022-08-30T03:33:45;14.70;99.90
18426;DHT22;9340;48.756;9.226;2022-08-30T03:36:12;14.70;99.90
18426;DHT22;9340;48.756;9.226;2022-08-30T03:38:40;14.70;99.90
18426;DHT22;9340;48.756;9.226;2022-08-30T03:41:07;14.70;99.90
18426;DHT22;9340;48.756;9.226;2022-08-30T03:43:34;14.70;99.90
18426;DHT22;9340;48.756;9.226;2022-08-30T03:46:01;14.70;99.90
18426;DHT22;9340;48.756;9.226;2022-08-30T03:48:29;14.60;99.90
18426;DHT22;9340;48.756;9.226;2022-08-30T03:50:56;14.60;99.90
18426;DHT22;9340;48.756;9.226;2022-08-30T03:53:23;14.50;99.90
18426;DHT22;9340;48.756;9.226;2022-08-30T03:55:51;14.60;99.90
18426;DHT22;9340;48.756;9.226;2022-08-30T03:58:17;14.60;99.90
18426;DHT22;9340;48.756;9.226;2022-08-30T04:00:44;14.60;99.90
18426;DHT22;9340;48.756;9.226;2022-08-30T04:03:11;14.50;99.90
18426;DHT22;9340;48.756;9.226;2022-08-30T04:05:38;14.50;99.90
18426;DHT22;9340;48.756;9.226;2022-08-30T04:08:05;14.50;99.90
18426;DHT22;9340;48.756;9.226;2022-08-30T04:10:32;14.50;99.90
18426;DHT22;9340;48.756;9.226;2022-08-30T04:13:00;14.50;99.90
18426;DHT22;9340;48.756;9.226;2022-08-30T04:15:27;14.50;99.90
18426;DHT22;9340;48.756;9.226;2022-08-30T04:17:54;14.50;99.90
18426;DHT22;9340;48.756;9.226;2022-08-30T04:20:21;14.50;99.90
18426;DHT22;9340;48.756;9.226;2022-08-30T04:22:47;14.50;99.90
18426;DHT22;9340;48.756;9.226;2022-08-30T04:25:14;14.40;99.90
18426;DHT22;9340;48.756;9.226;2022-08-30T04:27:42;14.40;99.90
18426;DHT22;9340;48.756;9.226;2022-08-30T04:30:12;14.40;99.90
18426;DHT22;9340;48.756;9.226;2022-08-30T04:32:39;14.40;99.90
18426;DHT22;9340;48.756;9.226;2022-08-30T04:35:06;14.40;99.90
18426;DHT22;9340;48.756;9.226;2022-08-30T04:37:34;14.40;99.90
18426;DHT22;9340;48.756;9.226;2022-08-30T04:40:00;14.40;99.90
18426;DHT22;9340;48.756;9.226;2022-08-30T04:42:30;14.40;99.90
18426;DHT22;9340;48.756;9.226;2022-08-30T04:44:57;14.40;99.90
18426;DHT22;9340;48.756;9.226;2022-08-30T04:47:26;14.40;99.90
18426;DHT22;9340;48.756;9.226;2022-08-30T04:49:53;14.30;99.90
18426;DHT22;9340;48.756;9.226;2022-08-30T04:52:20;14.30;99.90
18426;DHT22;9340;48.756;9.226;2022-08-30T04:54:46;14.30;99.90
18426;DHT22;9340;48.756;9.226;2022-08-30T04:57:13;14.40;99.90
18426;DHT22;9340;48.756;9.226;2022-08-30T04:59:40;14.40;99.90
18426;DHT22;9340;48.756;9.226;2022-08-30T05:02:07;14.40;99.90
18426;DHT22;9340;48.756;9.226;2022-08-30T05:04:35;14.40;99.90
18426;DHT22;9340;48.756;9.226;2022-08-30T05:07:02;14.50;99.90
18426;DHT22;9340;48.756;9.226;2022-08-30T05:09:29;14.60;99.90
18426;DHT22;9340;48.756;9.226;2022-08-30T05:11:55;14.70;99.90
18426;DHT22;9340;48.756;9.226;2022-08-30T05:14:22;14.70;99.90
18426;DHT22;9340;48.756;9.226;2022-08-30T05:16:49;14.90;99.90
18426;DHT22;9340;48.756;9.226;2022-08-30T05:19:16;15.00;99.90
18426;DHT22;9340;48.756;9.226;2022-08-30T05:21:43;15.10;99.90
18426;DHT22;9340;48.756;9.226;2022-08-30T05:24:10;15.30;99.90
18426;DHT22;9340;48.756;9.226;2022-08-30T05:26:37;15.50;99.90
18426;DHT22;9340;48.756;9.226;2022-08-30T05:29:04;15.60;99.90
18426;DHT22;9340;48.756;9.226;2022-08-30T05:31:33;15.80;99.90
18426;DHT22;9340;48.756;9.226;2022-08-30T05:34:01;16.00;99.90
18426;DHT22;9340;48.756;9.226;2022-08-30T05:36:29;16.20;99.90
18426;DHT22;9340;48.756;9.226;2022-08-30T05:38:58;16.40;99.90
18426;DHT22;9340;48.756;9.226;2022-08-30T05:41:25;16.50;99.90
18426;DHT22;9340;48.756;9.226;2022-08-30T05:43:52;16.60;99.90
18426;DHT22;9340;48.756;9.226;2022-08-30T05:46:19;16.70;99.90
18426;DHT22;9340;48.756;9.226;2022-08-30T05:48:46;16.80;99.90
18426;DHT22;9340;48.756;9.226;2022-08-30T05:51:16;16.80;99.90
18426;DHT22;9340;48.756;9.226;2022-08-30T05:53:43;16.80;99.90
18426;DHT22;9340;48.756;9.226;2022-08-30T05:56:13;16.80;99.90
18426;DHT22;9340;48.756;9.226;2022-08-30T05:58:41;16.80;99.90
18426;DHT22;9340;48.756;9.226;2022-08-30T06:01:18;16.80;99.90
18426;DHT22;9340;48.756;9.226;2022-08-30T06:03:45;16.80;99.90
18426;DHT22;9340;48.756;9.226;2022-08-30T06:06:12;16.90;99.90
18426;DHT22;9340;48.756;9.226;2022-08-30T06:08:39;16.90;99.90
18426;DHT22;9340;48.756;9.226;2022-08-30T06:11:05;17.00;99.90
18426;DHT22;9340;48.756;9.226;2022-08-30T06:13:33;17.10;99.90
18426;DHT22;9340;48.756;9.226;2022-08-30T06:16:00;17.20;99.90
18426;DHT22;9340;48.756;9.226;2022-08-30T06:18:27;17.30;99.90
18426;DHT22;9340;48.756;9.226;2022-08-30T06:20:53;17.40;99.90
18426;DHT22;9340;48.756;9.226;2022-08-30T06:23:20;17.50;99.90
18426;DHT22;9340;48.756;9.226;2022-08-30T06:25:47;17.60;99.90
18426;DHT22;9340;48.756;9.226;2022-08-30T06:28:14;17.80;99.90
18426;DHT22;9340;48.756;9.226;2022-08-30T06:30:42;17.90;99.90
18426;DHT22;9340;48.756;9.226;2022-08-30T06:33:09;18.00;99.90
18426;DHT22;9340;48.756;9.226;2022-08-30T06:35:37;18.20;99.90
18426;DHT22;9340;48.756;9.226;2022-08-30T06:38:03;18.40;99.90
18426;DHT22;9340;48.756;9.226;2022-08-30T06:40:30;18.70;99.90
18426;DHT22;9340;48.756;9.226;2022-08-30T06:42:57;18.90;99.90
18426;DHT22;9340;48.756;9.226;2022-08-30T06:45:24;19.10;99.90
18426;DHT22;9340;48.756;9.226;2022-08-30T06:47:52;19.40;99.90
18426;DHT22;9340;48.756;9.226;2022-08-30T06:50:18;19.70;99.90
18426;DHT22;9340;48.756;9.226;2022-08-30T06:52:45;20.00;99.90
18426;DHT22;9340;48.756;9.226;2022-08-30T06:55:14;20.30;99.90
18426;DHT22;9340;48.756;9.226;2022-08-30T06:57:41;20.40;99.90
18426;DHT22;9340;48.756;9.226;2022-08-30T07:00:12;20.30;99.90
18426;DHT22;9340;48.756;9.226;2022-08-30T07:02:39;20.40;99.90
18426;DHT22;9340;48.756;9.226;2022-08-30T07:05:08;20.50;99.90
18426;DHT22;9340;48.756;9.226;2022-08-30T07:07:36;20.50;99.90
18426;DHT22;9340;48.756;9.226;2022-08-30T07:10:05;20.60;99.90
18426;DHT22;9340;48.756;9.226;2022-08-30T07:12:32;20.60;99.90
18426;DHT22;9340;48.756;9.226;2022-08-30T07:15:01;20.70;99.90
18426;DHT22;9340;48.756;9.226;2022-08-30T07:17:27;20.80;99.90
18426;DHT22;9340;48.756;9.226;2022-08-30T07:20:13;20.90;99.90
18426;DHT22;9340;48.756;9.226;2022-08-30T07:22:40;21.00;99.90
18426;DHT22;9340;48.756;9.226;2022-08-30T07:25:07;21.10;99.90
18426;DHT22;9340;48.756;9.226;2022-08-30T07:27:34;21.30;99.90
18426;DHT22;9340;48.756;9.226;2022-08-30T07:30:01;21.50;99.90
18426;DHT22;9340;48.756;9.226;2022-08-30T07:32:28;21.60;99.90
18426;DHT22;9340;48.756;9.226;2022-08-30T07:34:54;21.80;99.90
18426;DHT22;9340;48.756;9.226;2022-08-30T07:37:22;22.00;99.90
18426;DHT22;9340;48.756;9.226;2022-08-30T07:39:49;22.20;99.90
18426;DHT22;9340;48.756;9.226;2022-08-30T07:42:17;22.30;99.90
18426;DHT22;9340;48.756;9.226;2022-08-30T07:44:43;22.40;99.90
18426;DHT22;9340;48.756;9.226;2022-08-30T07:47:10;22.50;99.90
18426;DHT22;9340;48.756;9.226;2022-08-30T07:49:37;22.70;99.90
18426;DHT22;9340;48.756;9.226;2022-08-30T07:52:04;22.80;99.90
18426;DHT22;9340;48.756;9.226;2022-08-30T07:54:32;22.80;99.90
18426;DHT22;9340;48.756;9.226;2022-08-30T07:56:59;22.80;99.90
18426;DHT22;9340;48.756;9.226;2022-08-30T07:59:25;22.90;99.90
18426;DHT22;9340;48.756;9.226;2022-08-30T08:01:52;23.00;99.90
18426;DHT22;9340;48.756;9.226;2022-08-30T08:04:19;23.10;99.90
18426;DHT22;9340;48.756;9.226;2022-08-30T08:06:46;23.20;99.90
18426;DHT22;9340;48.756;9.226;2022-08-30T08:09:12;23.40;99.90
18426;DHT22;9340;48.756;9.226;2022-08-30T08:11:40;23.40;99.90
18426;DHT22;9340;48.756;9.226;2022-08-30T08:14:08;23.40;99.90
18426;DHT22;9340;48.756;9.226;2022-08-30T08:16:36;23.30;99.90
18426;DHT22;9340;48.756;9.226;2022-08-30T08:19:04;23.30;99.90
18426;DHT22;9340;48.756;9.226;2022-08-30T08:21:33;23.30;99.90
18426;DHT22;9340;48.756;9.226;2022-08-30T08:24:00;23.40;99.90
18426;DHT22;9340;48.756;9.226;2022-08-30T08:26:27;23.40;99.90
18426;DHT22;9340;48.756;9.226;2022-08-30T08:28:55;23.40;99.90
18426;DHT22;9340;48.756;9.226;2022-08-30T08:31:24;23.50;99.90
18426;DHT22;9340;48.756;9.226;2022-08-30T08:33:51;23.50;99.90
18426;DHT22;9340;48.756;9.226;2022-08-30T08:36:17;23.60;99.90
18426;DHT22;9340;48.756;9.226;2022-08-30T08:38:44;23.70;99.90
18426;DHT22;9340;48.756;9.226;2022-08-30T08:41:24;23.70;99.90
18426;DHT22;9340;48.756;9.226;2022-08-30T08:43:55;23.70;99.90
18426;DHT22;9340;48.756;9.226;2022-08-30T08:46:27;23.80;99.90
18426;DHT22;9340;48.756;9.226;2022-08-30T08:49:03;23.80;99.90
18426;DHT22;9340;48.756;9.226;2022-08-30T08:51:33;23.80;99.90
18426;DHT22;9340;48.756;9.226;2022-08-30T08:54:23;23.90;99.90
18426;DHT22;9340;48.756;9.226;2022-08-30T08:56:52;23.80;99.90
18426;DHT22;9340;48.756;9.226;2022-08-30T08:59:21;23.90;99.90
18426;DHT22;9340;48.756;9.226;2022-08-30T09:01:48;23.90;99.90
18426;DHT22;9340;48.756;9.226;2022-08-30T09:04:18;23.90;99.90
18426;DHT22;9340;48.756;9.226;2022-08-30T09:06:51;24.00;99.90
18426;DHT22;9340;48.756;9.226;2022-08-30T09:09:21;24.10;99.90
18426;DHT22;9340;48.756;9.226;2022-08-30T09:11:48;24.30;99.90
18426;DHT22;9340;48.756;9.226;2022-08-30T09:14:18;24.40;99.90
18426;DHT22;9340;48.756;9.226;2022-08-30T09:16:55;24.50;99.90
18426;DHT22;9340;48.756;9.226;2022-08-30T09:19:28;24.60;99.90
18426;DHT22;9340;48.756;9.226;2022-08-30T09:21:56;24.60;99.90
18426;DHT22;9340;48.756;9.226;2022-08-30T09:24:23;24.80;99.90
18426;DHT22;9340;48.756;9.226;2022-08-30T09:26:50;24.80;99.90
18426;DHT22;9340;48.756;9.226;2022-08-30T09:29:17;24.90;99.90
18426;DHT22;9340;48.756;9.226;2022-08-30T09:31:46;25.00;99.90
18426;DHT22;9340;48.756;9.226;2022-08-30T09:34:18;25.20;99.90
18426;DHT22;9340;48.756;9.226;2022-08-30T09:36:47;25.30;99.90
18426;DHT22;9340;48.756;9.226;2022-08-30T09:39:17;25.40;99.90
18426;DHT22;9340;48.756;9.226;2022-08-30T09:41:46;25.40;99.90
18426;DHT22;9340;48.756;9.226;2022-08-30T09:44:15;25.30;99.90
18426;DHT22;9340;48.756;9.226;2022-08-30T09:46:45;25.30;99.90
18426;DHT22;9340;48.756;9.226;2022-08-30T09:49:27;25.40;99.90
18426;DHT22;9340;48.756;9.226;2022-08-30T09:52:08;25.60;99.90
18426;DHT22;9340;48.756;9.226;2022-08-30T09:54:42;25.60;99.90
18426;DHT22;9340;48.756;9.226;2022-08-30T09:57:17;25.60;99.90
18426;DHT22;9340;48.756;9.226;2022-08-30T09:59:49;25.60;99.90
18426;DHT22;9340;48.756;9.226;2022-08-30T10:02:42;25.70;99.90
18426;DHT22;9340;48.756;9.226;2022-08-30T10:05:18;25.80;99.90
18426;DHT22;9340;48.756;9.226;2022-08-30T10:07:53;26.00;99.90
18426;DHT22;9340;48.756;9.226;2022-08-30T10:10:28;26.10;99.90
18426;DHT22;9340;48.756;9.226;2022-08-30T10:13:04;26.10;99.90
18426;DHT22;9340;48.756;9.226;2022-08-30T10:15:34;26.00;99.90
18426;DHT22;9340;48.756;9.226;2022-08-30T10:18:11;26.10;99.90
18426;DHT22;9340;48.756;9.226;2022-08-30T10:20:52;26.20;99.90
18426;DHT22;9340;48.756;9.226;2022-08-30T10:23:25;26.30;99.90
18426;DHT22;9340;48.756;9.226;2022-08-30T10:25:56;26.40;99.90
18426;DHT22;9340;48.756;9.226;2022-08-30T10:28:30;26.50;99.90
18426;DHT22;9340;48.756;9.226;2022-08-30T10:31:04;26.60;99.90
18426;DHT22;9340;48.756;9.226;2022-08-30T10:33:35;26.70;99.90
18426;DHT22;9340;48.756;9.226;2022-08-30T10:36:08;26.90;99.90
18426;DHT22;9340;48.756;9.226;2022-08-30T10:38:37;26.90;99.90
18426;DHT22;9340;48.756;9.226;2022-08-30T10:41:23;27.10;99.90
18426;DHT22;9340;48.756;9.226;2022-08-30T10:43:57;27.00;99.90
18426;DHT22;9340;48.756;9.226;2022-08-30T10:46:29;27.10;99.90
18426;DHT22;9340;48.756;9.226;2022-08-30T10:49:02;27.20;99.90
18426;DHT22;9340;48.756;9.226;2022-08-30T10:51:36;27.20;99.90
18426;DHT22;9340;48.756;9.226;2022-08-30T10:54:10;26.90;99.90
18426;DHT22;9340;48.756;9.226;2022-08-30T10:56:42;26.80;99.90
18426;DHT22;9340;48.756;9.226;2022-08-30T10:59:09;26.70;99.90
18426;DHT22;9340;48.756;9.226;2022-08-30T11:02:11;26.80;99.90
18426;DHT22;9340;48.756;9.226;2022-08-30T11:05:18;27.00;99.90
18426;DHT22;9340;48.756;9.226;2022-08-30T11:07:54;27.20;99.90
18426;DHT22;9340;48.756;9.226;2022-08-30T11:10:34;27.20;99.90
18426;DHT22;9340;48.756;9.226;2022-08-30T11:13:08;27.00;99.90
18426;DHT22;9340;48.756;9.226;2022-08-30T11:15:52;27.20;99.90
18426;DHT22;9340;48.756;9.226;2022-08-30T11:18:19;27.50;99.90
18426;DHT22;9340;48.756;9.226;2022-08-30T11:20:49;27.50;99.90
18426;DHT22;9340;48.756;9.226;2022-08-30T11:23:24;27.50;99.90
18426;DHT22;9340;48.756;9.226;2022-08-30T11:25:54;27.80;99.90
18426;DHT22;9340;48.756;9.226;2022-08-30T11:31:32;28.10;99.90
18426;DHT22;9340;48.756;9.226;2022-08-30T11:34:00;28.40;99.90
18426;DHT22;9340;48.756;9.226;2022-08-30T11:39:54;29.00;99.90
18426;DHT22;9340;48.756;9.226;2022-08-30T11:42:27;29.20;99.90
18426;DHT22;9340;48.756;9.226;2022-08-30T11:48:02;29.00;99.90
18426;DHT22;9340;48.756;9.226;2022-08-30T11:50:33;29.00;99.90
18426;DHT22;9340;48.756;9.226;2022-08-30T11:53:07;29.00;99.90
18426;DHT22;9340;48.756;9.226;2022-08-30T11:55:54;29.10;99.90
18426;DHT22;9340;48.756;9.226;2022-08-30T11:58:29;29.10;99.90
18426;DHT22;9340;48.756;9.226;2022-08-30T12:01:21;29.30;99.90
18426;DHT22;9340;48.756;9.226;2022-08-30T12:03:59;29.60;99.90
18426;DHT22;9340;48.756;9.226;2022-08-30T12:06:51;29.90;99.90
18426;DHT22;9340;48.756;9.226;2022-08-30T12:12:53;29.90;99.90
18426;DHT22;9340;48.756;9.226;2022-08-30T12:18:29;29.80;99.90
18426;DHT22;9340;48.756;9.226;2022-08-30T12:20:58;30.00;99.90
18426;DHT22;9340;48.756;9.226;2022-08-30T12:23:33;30.00;99.90
18426;DHT22;9340;48.756;9.226;2022-08-30T12:26:14;29.90;99.90
18426;DHT22;9340;48.756;9.226;2022-08-30T12:28:44;29.70;99.90
18426;DHT22;9340;48.756;9.226;2022-08-30T12:31:16;29.80;99.90
18426;DHT22;9340;48.756;9.226;2022-08-30T12:33:45;30.30;99.90
18426;DHT22;9340;48.756;9.226;2022-08-30T12:36:15;30.60;99.90
18426;DHT22;9340;48.756;9.226;2022-08-30T12:38:42;30.70;99.90
18426;DHT22;9340;48.756;9.226;2022-08-30T12:41:18;30.50;99.90
18426;DHT22;9340;48.756;9.226;2022-08-30T12:43:50;30.30;99.90
18426;DHT22;9340;48.756;9.226;2022-08-30T12:46:18;30.60;99.90
18426;DHT22;9340;48.756;9.226;2022-08-30T12:48:46;31.10;99.90
18426;DHT22;9340;48.756;9.226;2022-08-30T12:51:29;31.60;99.90
18426;DHT22;9340;48.756;9.226;2022-08-30T12:54:04;31.90;99.50
18426;DHT22;9340;48.756;9.226;2022-08-30T12:56:55;32.00;98.60
18426;DHT22;9340;48.756;9.226;2022-08-30T12:59:46;31.70;98.70
18426;DHT22;9340;48.756;9.226;2022-08-30T13:02:18;31.20;99.10
18426;DHT22;9340;48.756;9.226;2022-08-30T13:04:46;30.50;99.70
18426;DHT22;9340;48.756;9.226;2022-08-30T13:07:25;29.90;99.90
18426;DHT22;9340;48.756;9.226;2022-08-30T13:10:06;29.10;99.90
18426;DHT22;9340;48.756;9.226;2022-08-30T13:12:34;29.10;99.90
18426;DHT22;9340;48.756;9.226;2022-08-30T13:15:18;29.30;99.90
18426;DHT22;9340;48.756;9.226;2022-08-30T13:17:45;29.70;99.90
18426;DHT22;9340;48.756;9.226;2022-08-30T13:20:23;30.10;99.90
18426;DHT22;9340;48.756;9.226;2022-08-30T13:23:03;30.40;99.90
18426;DHT22;9340;48.756;9.226;2022-08-30T13:25:30;30.60;99.60
18426;DHT22;9340;48.756;9.226;2022-08-30T13:27:58;30.60;99.90
18426;DHT22;9340;48.756;9.226;2022-08-30T13:30:26;30.40;99.00
18426;DHT22;9340;48.756;9.226;2022-08-30T13:32:53;30.10;99.60
18426;DHT22;9340;48.756;9.226;2022-08-30T13:35:20;30.00;99.90
18426;DHT22;9340;48.756;9.226;2022-08-30T13:37:47;30.00;99.40
18426;DHT22;9340;48.756;9.226;2022-08-30T13:40:15;30.10;99.40
18426;DHT22;9340;48.756;9.226;2022-08-30T13:42:42;30.30;99.00
18426;DHT22;9340;48.756;9.226;2022-08-30T13:45:10;30.20;98.80
18426;DHT22;9340;48.756;9.226;2022-08-30T13:47:39;29.80;99.10
18426;DHT22;9340;48.756;9.226;2022-08-30T13:50:06;29.80;99.50
18426;DHT22;9340;48.756;9.226;2022-08-30T13:52:33;29.50;99.30
18426;DHT22;9340;48.756;9.226;2022-08-30T13:55:00;29.40;99.90
18426;DHT22;9340;48.756;9.226;2022-08-30T13:57:28;29.40;99.80
18426;DHT22;9340;48.756;9.226;2022-08-30T13:59:55;29.30;99.80
18426;DHT22;9340;48.756;9.226;2022-08-30T14:02:22;29.20;99.90
18426;DHT22;9340;48.756;9.226;2022-08-30T14:04:50;29.20;99.90
18426;DHT22;9340;48.756;9.226;2022-08-30T14:07:17;29.10;99.90
18426;DHT22;9340;48.756;9.226;2022-08-30T14:09:43;29.10;99.90
18426;DHT22;9340;48.756;9.226;2022-08-30T14:12:10;29.20;99.90
18426;DHT22;9340;48.756;9.226;2022-08-30T14:14:37;29.20;99.90
18426;DHT22;9340;48.756;9.226;2022-08-30T14:17:03;29.10;99.90
18426;DHT22;9340;48.756;9.226;2022-08-30T14:19:30;29.10;99.90
18426;DHT22;9340;48.756;9.226;2022-08-30T14:21:58;29.10;99.90
18426;DHT22;9340;48.756;9.226;2022-08-30T14:24:25;28.90;99.90
18426;DHT22;9340;48.756;9.226;2022-08-30T14:26:51;28.70;99.90
18426;DHT22;9340;48.756;9.226;2022-08-30T14:29:20;28.30;99.90
18426;DHT22;9340;48.756;9.226;2022-08-30T14:31:48;28.20;99.90
18426;DHT22;9340;48.756;9.226;2022-08-30T14:34:16;28.40;99.90
18426;DHT22;9340;48.756;9.226;2022-08-30T14:36:44;28.60;99.90
18426;DHT22;9340;48.756;9.226;2022-08-30T14:39:15;28.80;99.90
18426;DHT22;9340;48.756;9.226;2022-08-30T14:41:45;28.90;99.90
18426;DHT22;9340;48.756;9.226;2022-08-30T14:44:13;29.00;99.90
18426;DHT22;9340;48.756;9.226;2022-08-30T14:46:40;28.80;99.90
18426;DHT22;9340;48.756;9.226;2022-08-30T14:49:07;28.90;99.90
18426;DHT22;9340;48.756;9.226;2022-08-30T14:51:33;29.00;99.90
18426;DHT22;9340;48.756;9.226;2022-08-30T14:54:00;29.20;99.90
18426;DHT22;9340;48.756;9.226;2022-08-30T14:56:28;29.40;99.00
18426;DHT22;9340;48.756;9.226;2022-08-30T14:58:55;29.60;98.30
18426;DHT22;9340;48.756;9.226;2022-08-30T15:01:26;29.40;98.80
18426;DHT22;9340;48.756;9.226;2022-08-30T15:03:53;29.60;98.50
18426;DHT22;9340;48.756;9.226;2022-08-30T15:06:20;29.70;98.20
18426;DHT22;9340;48.756;9.226;2022-08-30T15:08:47;29.90;97.50
18426;DHT22;9340;48.756;9.226;2022-08-30T15:11:16;29.80;98.70
18426;DHT22;9340;48.756;9.226;2022-08-30T15:13:44;29.50;99.40
18426;DHT22;9340;48.756;9.226;2022-08-30T15:16:14;29.40;99.70
18426;DHT22;9340;48.756;9.226;2022-08-30T15:18:41;29.30;99.90
18426;DHT22;9340;48.756;9.226;2022-08-30T15:21:08;29.10;99.90
18426;DHT22;9340;48.756;9.226;2022-08-30T15:23:35;28.80;99.90
18426;DHT22;9340;48.756;9.226;2022-08-30T15:26:02;28.70;99.90
18426;DHT22;9340;48.756;9.226;2022-08-30T15:28:29;28.30;99.90
18426;DHT22;9340;48.756;9.226;2022-08-30T15:30:57;28.20;99.90
18426;DHT22;9340;48.756;9.226;2022-08-30T15:33:23;28.30;99.90
18426;DHT22;9340;48.756;9.226;2022-08-30T15:35:51;28.40;99.90
18426;DHT22;9340;48.756;9.226;2022-08-30T15:38:18;28.40;99.90
18426;DHT22;9340;48.756;9.226;2022-08-30T15:40:44;28.50;99.90
18426;DHT22;9340;48.756;9.226;2022-08-30T15:43:11;28.40;99.90
18426;DHT22;9340;48.756;9.226;2022-08-30T15:45:38;28.30;99.90
18426;DHT22;9340;48.756;9.226;2022-08-30T15:48:06;28.20;99.90
18426;DHT22;9340;48.756;9.226;2022-08-30T15:50:33;28.20;99.90
18426;DHT22;9340;48.756;9.226;2022-08-30T15:53:01;28.30;99.90
18426;DHT22;9340;48.756;9.226;2022-08-30T15:55:28;28.40;99.90
18426;DHT22;9340;48.756;9.226;2022-08-30T15:57:54;28.40;99.90
18426;DHT22;9340;48.756;9.226;2022-08-30T16:00:21;28.70;99.90
18426;DHT22;9340;48.756;9.226;2022-08-30T16:02:48;28.80;99.90
18426;DHT22;9340;48.756;9.226;2022-08-30T16:05:17;28.80;99.90
18426;DHT22;9340;48.756;9.226;2022-08-30T16:07:45;28.70;99.90
18426;DHT22;9340;48.756;9.226;2022-08-30T16:10:12;28.50;99.90
18426;DHT22;9340;48.756;9.226;2022-08-30T16:12:39;28.30;99.90
18426;DHT22;9340;48.756;9.226;2022-08-30T16:15:07;28.00;99.90